createdAt,value
2024-01-15T00:01:30.774Z,100.00
2024-01-15T00:03:57.366Z,100.00
2024-01-15T00:06:26.004Z,100.00
2024-01-15T00:08:52.752Z,100.00
2024-01-15T00:11:19.554Z,100.00
2024-01-15T00:13:46.274Z,100.00
2024-01-15T00:16:14.412Z,100.00
2024-01-15T00:18:41.083Z,100.00
2024-01-15T00:21:07.699Z,100.00
2024-01-15T00:23:34.187Z,100.00
2024-01-15T00:26:00.717Z,100.00
2024-01-15T00:28:27.217Z,100.00
2024-01-15T00:30:53.926Z,100.00
2024-01-15T00:33:21.959Z,100.00
2024-01-15T00:35:48.451Z,100.00
2024-01-15T00:38:14.882Z,100.00
2024-01-15T00:40:41.402Z,100.00
2024-01-15T00:43:08.198Z,100.00
2024-01-15T00:45:34.744Z,100.00
2024-01-15T00:48:01.330Z,100.00
2024-01-15T00:50:30.199Z,100.00
2024-01-15T00:52:56.628Z,100.00
2024-01-15T00:55:23.256Z,100.00
2024-01-15T00:57:49.861Z,100.00
2024-01-15T01:00:17.028Z,100.00
2024-01-15T01:02:43.745Z,100.00
2024-01-15T01:05:10.507Z,100.00
2024-01-15T01:07:38.413Z,100.00
2024-01-15T01:10:05.987Z,100.00
2024-01-15T01:12:32.508Z,100.00
2024-01-15T01:14:58.950Z,100.00
2024-01-15T01:17:26.200Z,100.00
2024-01-15T01:19:52.845Z,100.00
2024-01-15T01:22:19.326Z,100.00
2024-01-15T01:24:47.142Z,100.00
2024-01-15T01:27:13.922Z,100.00
2024-01-15T01:29:40.750Z,100.00
2024-01-15T01:32:07.219Z,100.00
2024-01-15T01:34:35.076Z,100.00
2024-01-15T01:37:01.581Z,100.00
2024-01-15T01:39:28.326Z,100.00
2024-01-15T01:41:56.101Z,100.00
2024-01-15T01:44:22.658Z,100.00
2024-01-15T01:46:49.353Z,100.00
2024-01-15T01:49:16.370Z,100.00
2024-01-15T01:51:43.118Z,100.00
2024-01-15T01:54:10.269Z,100.00
2024-01-15T01:56:37.070Z,100.00
2024-01-15T01:59:05.676Z,100.00
2024-01-15T02:01:33.151Z,100.00
2024-01-15T02:04:00.272Z,100.00
2024-01-15T02:06:26.928Z,100.00
2024-01-15T02:08:53.681Z,100.00
2024-01-15T02:11:20.165Z,100.00
2024-01-15T02:13:46.751Z,100.00
2024-01-15T02:16:14.758Z,100.00
2024-01-15T02:18:42.695Z,100.00
2024-01-15T02:21:09.305Z,100.00
2024-01-15T02:23:37.785Z,100.00
2024-01-15T02:26:05.797Z,100.00
2024-01-15T02:28:34.028Z,100.00
2024-01-15T02:31:00.963Z,100.00
2024-01-15T02:33:27.726Z,100.00
2024-01-15T02:35:54.445Z,100.00
2024-01-15T02:38:20.918Z,100.00
2024-01-15T02:40:48.720Z,100.00
2024-01-15T02:43:15.111Z,100.00
2024-01-15T02:45:41.727Z,100.00
2024-01-15T02:48:08.620Z,100.00
2024-01-15T02:50:35.302Z,100.00
2024-01-15T02:53:02.050Z,100.00
2024-01-15T02:55:28.502Z,100.00
2024-01-15T02:57:56.419Z,100.00
2024-01-15T03:00:22.979Z,100.00
2024-01-15T03:02:51.669Z,100.00
2024-01-15T03:05:18.512Z,100.00
2024-01-15T03:07:45.032Z,100.00
2024-01-15T03:10:11.500Z,100.00
2024-01-15T03:12:38.164Z,100.00
2024-01-15T03:15:07.468Z,100.00
2024-01-15T03:17:34.214Z,100.00
2024-01-15T03:20:01.187Z,100.00
2024-01-15T03:22:27.792Z,100.00
2024-01-15T03:24:54.943Z,100.00
2024-01-15T03:27:21.667Z,100.00
2024-01-15T03:29:48.143Z,100.00
2024-01-15T03:32:16.269Z,100.00
2024-01-15T03:34:42.944Z,100.00
2024-01-15T03:37:09.475Z,100.00
2024-01-15T03:39:36.080Z,100.00
2024-01-15T03:42:02.586Z,100.00
2024-01-15T03:44:29.155Z,100.00
2024-01-15T03:46:55.624Z,100.00
2024-01-15T03:49:23.926Z,100.00
2024-01-15T03:51:50.581Z,100.00
2024-01-15T03:54:19.053Z,100.00
2024-01-15T03:56:47.070Z,100.00
2024-01-15T03:59:13.582Z,100.00
2024-01-15T04:01:40.085Z,100.00
2024-01-15T04:04:06.807Z,100.00
2024-01-15T04:06:34.726Z,100.00
2024-01-15T04:09:01.476Z,100.00
2024-01-15T04:11:27.968Z,100.00
2024-01-15T04:13:54.420Z,100.00
2024-01-15T04:16:20.818Z,100.00
2024-01-15T04:18:47.379Z,100.00
2024-01-15T04:21:14.143Z,100.00
2024-01-15T04:23:41.911Z,100.00
2024-01-15T04:26:08.517Z,100.00
2024-01-15T04:28:35.020Z,100.00
2024-01-15T04:31:01.683Z,100.00
2024-01-15T04:33:28.425Z,100.00
2024-01-15T04:35:55.030Z,100.00
2024-01-15T04:38:21.529Z,100.00
2024-01-15T04:40:49.418Z,100.00
2024-01-15T04:43:15.996Z,100.00
2024-01-15T04:45:42.461Z,100.00
2024-01-15T04:48:09.074Z,100.00
2024-01-15T04:50:35.606Z,100.00
2024-01-15T04:53:02.300Z,100.00
2024-01-15T04:55:28.896Z,100.00
2024-01-15T04:57:56.640Z,100.00
2024-01-15T05:00:23.086Z,100.00
2024-01-15T05:02:49.676Z,100.00
2024-01-15T05:05:16.304Z,100.00
2024-01-15T05:07:42.755Z,100.00
2024-01-15T05:10:09.368Z,100.00
2024-01-15T05:12:36.007Z,100.00
2024-01-15T05:15:06.189Z,100.00
2024-01-15T05:17:32.784Z,100.00
2024-01-15T05:19:59.599Z,100.00
2024-01-15T05:22:26.556Z,100.00
2024-01-15T05:24:53.255Z,100.00
2024-01-15T05:27:20.090Z,100.00
2024-01-15T05:29:46.643Z,100.00
2024-01-15T05:32:14.514Z,100.00
2024-01-15T05:34:41.139Z,100.00
2024-01-15T05:37:07.607Z,100.00
2024-01-15T05:39:34.090Z,100.00
2024-01-15T05:42:00.589Z,100.00
2024-01-15T05:44:27.064Z,100.00
2024-01-15T05:46:54.550Z,100.00
2024-01-15T05:49:22.893Z,100.00
2024-01-15T05:51:49.459Z,100.00
2024-01-15T05:54:16.031Z,100.00
2024-01-15T05:56:42.583Z,100.00
2024-01-15T05:59:10.626Z,100.00
2024-01-15T06:01:38.709Z,100.00
2024-01-15T06:04:05.383Z,100.00
2024-01-15T06:06:33.278Z,100.00
2024-01-15T06:08:59.836Z,100.00
2024-01-15T06:11:30.638Z,100.00
2024-01-15T06:13:57.477Z,100.00
2024-01-15T06:16:25.065Z,100.00
2024-01-15T06:18:51.572Z,100.00
2024-01-15T06:21:18.263Z,100.00
2024-01-15T06:23:46.361Z,100.00
2024-01-15T06:26:13.048Z,100.00
2024-01-15T06:28:39.567Z,100.00
2024-01-15T06:31:07.525Z,100.00
2024-01-15T06:33:34.147Z,100.00
2024-01-15T06:36:00.981Z,100.00
2024-01-15T06:38:27.423Z,100.00
2024-01-15T06:40:55.290Z,100.00
2024-01-15T06:43:21.751Z,100.00
2024-01-15T06:45:48.375Z,100.00
2024-01-15T06:48:14.973Z,100.00
2024-01-15T06:50:41.509Z,100.00
2024-01-15T06:53:07.980Z,100.00
2024-01-15T06:55:34.820Z,100.00
2024-01-15T06:58:02.844Z,100.00
2024-01-15T07:00:29.577Z,100.00
2024-01-15T07:02:56.148Z,100.00
2024-01-15T07:05:22.717Z,100.00
2024-01-15T07:07:49.605Z,100.00
2024-01-15T07:10:16.501Z,100.00
2024-01-15T07:12:43.722Z,100.00
2024-01-15T07:15:12.285Z,100.00
2024-01-15T07:17:38.807Z,100.00
2024-01-15T07:20:06.785Z,100.00
2024-01-15T07:22:33.501Z,100.00
2024-01-15T07:25:00.057Z,100.00
2024-01-15T07:27:26.596Z,100.00
2024-01-15T07:29:53.058Z,100.00
2024-01-15T07:32:20.860Z,100.00
2024-01-15T07:34:47.530Z,100.00
2024-01-15T07:37:14.183Z,100.00
2024-01-15T07:39:41.088Z,100.00
2024-01-15T07:42:08.260Z,100.00
2024-01-15T07:44:34.760Z,100.00
2024-01-15T07:47:01.175Z,100.00
2024-01-15T07:49:29.052Z,100.00
2024-01-15T07:51:55.644Z,100.00
2024-01-15T07:54:22.345Z,100.00
2024-01-15T07:56:55.961Z,100.00
2024-01-15T07:59:22.454Z,100.00
2024-01-15T08:01:49.219Z,100.00
2024-01-15T08:04:15.763Z,100.00
2024-01-15T08:06:43.846Z,100.00
2024-01-15T08:09:10.410Z,100.00
2024-01-15T08:11:36.836Z,100.00
2024-01-15T08:14:03.320Z,100.00
2024-01-15T08:16:29.899Z,100.00
2024-01-15T08:18:56.671Z,100.00
2024-01-15T08:21:23.209Z,100.00
2024-01-15T08:23:51.020Z,100.00
2024-01-15T08:26:17.551Z,100.00
2024-01-15T08:28:44.008Z,100.00
2024-01-15T08:31:10.593Z,100.00
2024-01-15T08:33:37.333Z,100.00
2024-01-15T08:36:04.404Z,100.00
2024-01-15T08:38:30.877Z,100.00
2024-01-15T08:40:58.665Z,100.00
2024-01-15T08:43:25.248Z,100.00
2024-01-15T08:45:51.796Z,100.00
2024-01-15T08:48:18.419Z,100.00
2024-01-15T08:50:44.952Z,100.00
2024-01-15T08:53:11.373Z,100.00
2024-01-15T08:55:38.496Z,100.00
2024-01-15T08:58:06.288Z,100.00
2024-01-15T09:00:33.294Z,100.00
2024-01-15T09:03:01.280Z,100.00
2024-01-15T09:05:27.818Z,100.00
2024-01-15T09:07:54.314Z,100.00
2024-01-15T09:10:20.950Z,100.00
2024-01-15T09:12:48.131Z,100.00
2024-01-15T09:15:16.507Z,100.00
2024-01-15T09:17:43.466Z,100.00
2024-01-15T09:20:10.885Z,100.00
2024-01-15T09:22:39.553Z,100.00
2024-01-15T09:25:06.445Z,100.00
2024-01-15T09:27:33.083Z,100.00
2024-01-15T09:29:59.534Z,100.00
2024-01-15T09:32:27.494Z,100.00
2024-01-15T09:34:54.094Z,100.00
2024-01-15T09:37:32.328Z,100.00
2024-01-15T09:40:09.127Z,100.00
2024-01-15T09:42:36.488Z,100.00
2024-01-15T09:45:03.256Z,100.00
2024-01-15T09:47:31.472Z,100.00
2024-01-15T09:49:58.037Z,100.00
2024-01-15T09:52:26.136Z,100.00
2024-01-15T09:54:53.478Z,100.00
2024-01-15T09:57:20.681Z,100.00
2024-01-15T09:59:49.149Z,100.00
2024-01-15T10:02:15.999Z,100.00
2024-01-15T10:04:44.056Z,100.00
2024-01-15T10:07:13.589Z,100.00
2024-01-15T10:09:40.107Z,100.00
2024-01-15T10:12:07.450Z,100.00
2024-01-15T10:14:34.005Z,100.00
2024-01-15T10:17:00.712Z,100.00
2024-01-15T10:19:27.342Z,100.00
2024-01-15T10:21:55.326Z,100.00
2024-01-15T10:24:21.996Z,100.00
2024-01-15T10:26:48.813Z,100.00
2024-01-15T10:29:16.072Z,100.00
2024-01-15T10:31:42.635Z,100.00
2024-01-15T10:34:13.669Z,100.00
2024-01-15T10:36:41.122Z,100.00
2024-01-15T10:39:09.026Z,100.00
2024-01-15T10:41:35.825Z,100.00
2024-01-15T10:44:02.345Z,100.00
2024-01-15T10:46:29.462Z,100.00
2024-01-15T10:48:56.095Z,100.00
2024-01-15T10:51:22.764Z,100.00
2024-01-15T10:53:49.383Z,100.00
2024-01-15T10:56:18.954Z,100.00
2024-01-15T10:58:46.359Z,100.00
2024-01-15T11:01:13.965Z,100.00
2024-01-15T11:03:40.848Z,100.00
2024-01-15T11:06:17.313Z,100.00
2024-01-15T11:08:43.863Z,100.00
2024-01-15T11:11:10.347Z,100.00
2024-01-15T11:13:47.545Z,100.00
2024-01-15T11:16:15.747Z,100.00
2024-01-15T11:18:43.784Z,100.00
2024-01-15T11:21:26.460Z,100.00
2024-01-15T11:23:55.417Z,100.00
2024-01-15T11:26:29.346Z,100.00
2024-01-15T11:28:58.599Z,100.00
2024-01-15T11:31:28.562Z,100.00
2024-01-15T11:33:55.525Z,100.00
2024-01-15T11:36:22.173Z,100.00
2024-01-15T11:38:48.703Z,100.00
2024-01-15T11:41:16.230Z,100.00
2024-01-15T11:43:43.466Z,100.00
2024-01-15T11:46:13.424Z,100.00
2024-01-15T11:48:44.560Z,100.00
2024-01-15T11:51:12.439Z,100.00
2024-01-15T11:53:45.511Z,100.00
2024-01-15T11:56:16.358Z,100.00
2024-01-15T11:58:43.283Z,100.00
2024-01-15T12:01:11.481Z,100.00
2024-01-15T12:03:39.451Z,100.00
2024-01-15T12:06:07.065Z,100.00
2024-01-15T12:08:33.604Z,100.00
2024-01-15T12:11:00.180Z,100.00
2024-01-15T12:13:28.053Z,100.00
2024-01-15T12:15:55.471Z,100.00
2024-01-15T12:18:22.297Z,100.00
2024-01-15T12:20:50.934Z,100.00
2024-01-15T12:23:18.516Z,100.00
2024-01-15T12:25:45.493Z,100.00
2024-01-15T12:28:12.298Z,100.00
2024-01-15T12:30:40.364Z,100.00
2024-01-15T12:33:08.530Z,100.00
2024-01-15T12:35:35.825Z,100.00
2024-01-15T12:38:04.387Z,100.00
2024-01-15T12:40:32.291Z,100.00
2024-01-15T12:42:58.981Z,100.00
2024-01-15T12:45:25.504Z,100.00
2024-01-15T12:47:52.231Z,100.00
2024-01-15T12:50:20.467Z,100.00
2024-01-15T12:52:48.423Z,100.00
2024-01-15T12:55:17.042Z,100.00
2024-01-15T12:57:43.859Z,100.00
2024-01-15T13:00:11.384Z,100.00
2024-01-15T13:02:37.971Z,100.00
2024-01-15T13:05:05.064Z,100.00
2024-01-15T13:07:31.598Z,100.00
2024-01-15T13:09:58.005Z,100.00
2024-01-15T13:12:26.113Z,100.00
2024-01-15T13:14:52.624Z,100.00
2024-01-15T13:17:19.667Z,100.00
2024-01-15T13:19:46.321Z,100.00
2024-01-15T13:22:12.819Z,100.00
2024-01-15T13:24:39.275Z,100.00
2024-01-15T13:27:05.761Z,100.00
2024-01-15T13:29:33.520Z,100.00
2024-01-15T13:32:00.153Z,100.00
2024-01-15T13:34:26.793Z,100.00
2024-01-15T13:36:53.423Z,100.00
2024-01-15T13:39:19.936Z,100.00
2024-01-15T13:41:46.487Z,100.00
2024-01-15T13:44:12.918Z,100.00
2024-01-15T13:46:40.838Z,100.00
2024-01-15T13:49:07.429Z,100.00
2024-01-15T13:51:34.023Z,100.00
2024-01-15T13:54:00.714Z,100.00
2024-01-15T13:56:27.111Z,100.00
2024-01-15T13:58:53.547Z,100.00
2024-01-15T14:01:20.139Z,100.00
2024-01-15T14:03:48.097Z,100.00
2024-01-15T14:06:14.676Z,100.00
2024-01-15T14:08:41.443Z,100.00
2024-01-15T14:11:07.855Z,100.00
2024-01-15T14:13:34.401Z,100.00
2024-01-15T14:16:01.317Z,100.00
2024-01-15T14:18:28.961Z,100.00
2024-01-15T14:20:58.103Z,100.00
2024-01-15T14:23:24.625Z,100.00
2024-01-15T14:25:51.072Z,100.00
2024-01-15T14:28:17.500Z,100.00
2024-01-15T14:30:44.284Z,100.00
2024-01-15T14:33:10.900Z,99.49
2024-01-15T14:35:37.393Z,100.00
2024-01-15T14:38:05.632Z,100.00
2024-01-15T14:40:32.109Z,100.00
2024-01-15T14:42:59.075Z,99.04
2024-01-15T14:45:25.592Z,98.57
2024-01-15T14:47:52.233Z,97.95
2024-01-15T14:50:19.101Z,97.54
2024-01-15T14:52:45.543Z,96.25
2024-01-15T14:55:13.710Z,95.22
2024-01-15T14:57:40.278Z,95.93
2024-01-15T15:00:07.693Z,94.40
2024-01-15T15:02:34.430Z,93.71
2024-01-15T15:05:01.559Z,93.05
2024-01-15T15:07:28.226Z,93.04
2024-01-15T15:09:54.771Z,94.07
2024-01-15T15:12:22.776Z,91.53
2024-01-15T15:14:56.504Z,92.11
2024-01-15T15:17:30.716Z,92.65
2024-01-15T15:19:57.396Z,93.24
2024-01-15T15:22:24.048Z,93.15
2024-01-15T15:24:50.593Z,93.16
2024-01-15T15:27:17.015Z,93.12
2024-01-15T15:29:44.944Z,94.36
2024-01-15T15:32:11.374Z,94.95
2024-01-15T15:34:38.385Z,96.35
2024-01-15T15:37:05.605Z,96.62
2024-01-15T15:39:32.182Z,97.33
2024-01-15T15:41:58.751Z,98.31
2024-01-15T15:44:25.150Z,98.89
2024-01-15T15:46:52.970Z,100.00
2024-01-15T15:49:19.632Z,100.00
2024-01-15T15:51:46.516Z,100.00
2024-01-15T15:54:13.364Z,100.00
2024-01-15T15:56:39.926Z,100.00
2024-01-15T15:59:06.514Z,100.00
2024-01-15T16:01:33.275Z,100.00
2024-01-15T16:04:01.349Z,100.00
2024-01-15T16:06:28.456Z,100.00
2024-01-15T16:08:54.951Z,100.00
2024-01-15T16:11:21.508Z,100.00
2024-01-15T16:13:47.905Z,100.00
2024-01-15T16:23:10.315Z,100.00
2024-01-15T16:23:23.422Z,100.00
2024-01-15T16:23:38.282Z,100.00
2024-01-15T16:24:46.174Z,100.00
2024-01-15T16:27:18.102Z,100.00
2024-01-15T16:29:44.593Z,100.00
2024-01-15T16:32:11.023Z,100.00
2024-01-15T16:34:39.108Z,100.00
2024-01-15T16:37:05.609Z,100.00
2024-01-15T16:39:32.321Z,100.00
2024-01-15T16:41:58.722Z,100.00
2024-01-15T16:44:25.211Z,100.00
2024-01-15T16:46:51.724Z,100.00
2024-01-15T16:49:19.549Z,100.00
2024-01-15T16:51:47.569Z,100.00
2024-01-15T16:54:14.082Z,100.00
2024-01-15T16:56:40.864Z,100.00
2024-01-15T16:59:07.406Z,100.00
2024-01-15T17:01:33.916Z,100.00
2024-01-15T17:04:00.399Z,100.00
2024-01-15T17:06:26.770Z,100.00
2024-01-15T17:08:54.568Z,100.00
2024-01-15T17:11:21.026Z,100.00
2024-01-15T17:13:47.658Z,100.00
2024-01-15T17:16:14.411Z,100.00
2024-01-15T17:18:41.220Z,100.00
2024-01-15T17:21:07.652Z,100.00
2024-01-15T17:23:34.205Z,100.00
2024-01-15T17:26:02.248Z,100.00
2024-01-15T17:28:28.875Z,100.00
2024-01-15T17:30:55.447Z,100.00
2024-01-15T17:33:22.143Z,100.00
2024-01-15T17:35:52.244Z,100.00
2024-01-15T17:38:18.694Z,100.00
2024-01-15T17:40:45.389Z,100.00
2024-01-15T17:43:13.601Z,100.00
2024-01-15T17:45:40.139Z,100.00
2024-01-15T17:48:07.423Z,100.00
2024-01-15T17:50:33.972Z,100.00
2024-01-15T17:53:00.524Z,100.00
2024-01-15T17:55:27.512Z,100.00
2024-01-15T17:57:54.364Z,100.00
2024-01-15T18:00:22.361Z,100.00
2024-01-15T18:02:48.842Z,100.00
2024-01-15T18:05:16.563Z,100.00
2024-01-15T18:07:43.371Z,100.00
2024-01-15T18:10:10.936Z,100.00
2024-01-15T18:12:37.666Z,100.00
2024-01-15T18:15:04.924Z,100.00
2024-01-15T18:17:32.754Z,100.00
2024-01-15T18:19:59.551Z,100.00
2024-01-15T18:22:26.033Z,100.00
2024-01-15T18:24:52.416Z,100.00
2024-01-15T18:27:18.973Z,100.00
2024-01-15T18:29:45.502Z,100.00
2024-01-15T18:32:12.013Z,100.00
2024-01-15T18:34:40.095Z,100.00
2024-01-15T18:37:06.589Z,100.00
2024-01-15T18:39:32.993Z,100.00
2024-01-15T18:41:59.468Z,100.00
2024-01-15T18:44:26.209Z,100.00
2024-01-15T18:46:52.916Z,99.52
2024-01-15T18:49:19.471Z,99.62
2024-01-15T18:51:49.227Z,99.11
2024-01-15T18:54:16.848Z,99.61
2024-01-15T18:56:43.623Z,98.95
2024-01-15T18:59:10.295Z,98.40
2024-01-15T19:01:36.832Z,98.97
2024-01-15T19:04:03.628Z,98.61
2024-01-15T19:06:30.236Z,99.20
2024-01-15T19:08:58.228Z,98.62
2024-01-15T19:11:24.739Z,98.99
2024-01-15T19:13:51.673Z,98.47
2024-01-15T19:16:18.140Z,98.43
2024-01-15T19:18:44.840Z,97.75
2024-01-15T19:21:11.338Z,97.61
2024-01-15T19:23:37.872Z,97.78
2024-01-15T19:26:05.864Z,97.40
2024-01-15T19:28:32.276Z,97.88
2024-01-15T19:30:58.676Z,97.95
2024-01-15T19:33:25.383Z,97.92
2024-01-15T19:35:51.979Z,97.42
2024-01-15T19:38:18.400Z,97.81
2024-01-15T19:40:44.961Z,98.07
2024-01-15T19:43:13.091Z,98.19
2024-01-15T19:45:39.540Z,98.53
2024-01-15T19:48:06.851Z,98.48
2024-01-15T19:50:33.403Z,98.18
2024-01-15T19:52:59.907Z,97.65
2024-01-15T19:55:26.401Z,97.98
2024-01-15T19:57:52.859Z,98.05
2024-01-15T20:00:21.097Z,97.91
2024-01-15T20:02:47.612Z,98.44
2024-01-15T20:05:14.199Z,98.90
2024-01-15T20:07:40.914Z,98.54
2024-01-15T20:10:08.365Z,99.12
2024-01-15T20:12:35.042Z,99.03
2024-01-15T20:15:01.458Z,99.38
2024-01-15T20:17:29.330Z,100.00
2024-01-15T20:19:56.080Z,99.83
2024-01-15T20:22:22.648Z,100.00
2024-01-15T20:24:49.125Z,100.00
2024-01-15T20:27:15.638Z,99.63
2024-01-15T20:29:42.141Z,99.48
2024-01-15T20:32:08.793Z,100.00
2024-01-15T20:34:36.675Z,100.00
2024-01-15T20:37:03.113Z,100.00
2024-01-15T20:39:29.590Z,100.00
2024-01-15T20:41:55.975Z,100.00
2024-01-15T20:44:22.515Z,100.00
2024-01-15T20:46:49.030Z,100.00
2024-01-15T20:49:15.458Z,100.00
2024-01-15T20:51:43.224Z,100.00
2024-01-15T20:54:09.684Z,100.00
2024-01-15T20:56:36.366Z,100.00
2024-01-15T20:59:02.859Z,100.00
2024-01-15T21:01:29.487Z,100.00
2024-01-15T21:03:55.931Z,100.00
2024-01-15T21:06:25.004Z,100.00
2024-01-15T21:08:52.921Z,100.00
2024-01-15T21:11:19.355Z,100.00
2024-01-15T21:13:45.777Z,100.00
2024-01-15T21:16:12.597Z,100.00
2024-01-15T21:18:39.392Z,100.00
2024-01-15T21:21:05.971Z,100.00
2024-01-15T21:23:32.682Z,100.00
2024-01-15T21:26:00.602Z,100.00
2024-01-15T21:28:27.140Z,100.00
2024-01-15T21:30:53.645Z,100.00
2024-01-15T21:33:20.525Z,100.00
2024-01-15T21:35:47.459Z,100.00
2024-01-15T21:38:14.013Z,100.00
2024-01-15T21:40:40.578Z,100.00
2024-01-15T21:43:08.382Z,100.00
2024-01-15T21:45:34.897Z,100.00
2024-01-15T21:48:01.706Z,100.00
2024-01-15T21:50:28.318Z,100.00
2024-01-15T21:52:54.811Z,100.00
2024-01-15T21:55:21.277Z,100.00
2024-01-15T21:57:48.040Z,100.00
2024-01-15T22:00:18.484Z,100.00
2024-01-15T22:02:45.175Z,100.00
2024-01-15T22:05:12.000Z,100.00
2024-01-15T22:07:42.329Z,100.00
2024-01-15T22:10:09.717Z,100.00
2024-01-15T22:12:36.536Z,100.00
2024-01-15T22:15:03.395Z,100.00
2024-01-15T22:17:31.360Z,100.00
2024-01-15T22:19:58.183Z,100.00
2024-01-15T22:22:24.725Z,100.00
2024-01-15T22:24:51.247Z,100.00
2024-01-15T22:27:18.041Z,100.00
2024-01-15T22:29:44.616Z,100.00
2024-01-15T22:32:11.211Z,100.00
2024-01-15T22:34:39.046Z,100.00
2024-01-15T22:37:05.862Z,100.00
2024-01-15T22:39:32.504Z,100.00
2024-01-15T22:41:58.969Z,100.00
2024-01-15T22:44:25.667Z,100.00
2024-01-15T22:46:52.265Z,100.00
2024-01-15T22:49:18.811Z,100.00
2024-01-15T22:51:46.785Z,100.00
2024-01-15T22:54:13.813Z,100.00
2024-01-15T22:56:40.601Z,100.00
2024-01-15T22:59:07.193Z,100.00
2024-01-15T23:01:34.577Z,100.00
2024-01-15T23:04:01.106Z,100.00
2024-01-15T23:06:27.506Z,100.00
2024-01-15T23:08:55.393Z,100.00
2024-01-15T23:11:21.914Z,100.00
2024-01-15T23:13:48.626Z,100.00
2024-01-15T23:16:15.232Z,100.00
2024-01-15T23:18:42.308Z,100.00
2024-01-15T23:21:08.963Z,100.00
2024-01-15T23:23:35.543Z,100.00
2024-01-15T23:26:03.754Z,100.00
2024-01-15T23:28:31.200Z,100.00
2024-01-15T23:30:57.609Z,100.00
2024-01-15T23:33:24.453Z,100.00
2024-01-15T23:35:55.230Z,100.00
2024-01-15T23:38:23.280Z,100.00
2024-01-15T23:40:49.785Z,100.00
2024-01-15T23:43:20.201Z,100.00
2024-01-15T23:45:51.082Z,100.00
2024-01-15T23:48:20.312Z,100.00
2024-01-15T23:50:46.854Z,100.00
2024-01-15T23:53:13.526Z,100.00
2024-01-15T23:55:39.999Z,100.00
2024-01-15T23:58:06.460Z,100.00
